Terminal Aerodrome Forecast
Issued by NWS Tampa Bay Area, FL

Home | Current Version | Previous Version | Text Only | Print | Product List | Glossary On
Versions: 1 2 3 4 5 6 7 8 9 10 11 12
000
FTUS42 KTBW 251123
TAFSRQ
TAF
KSRQ 251123Z 2512/2612 09007KT P6SM SKC
     FM251400 10011KT P6SM FEW030
     FM252000 06010G15KT P6SM SCT050
     FM260100 08012KT P6SM SCT060
     FM260600 06005KT P6SM SKC=

USA.gov is the U.S. government's official web portal to all federal, state and local government web resources and services.